Maryborough, Australia
Current Conditions -  °F | °C
As of 1:00 PM on Monday 22 Dec 2014 (Local Time) from YBUD Reporting Station
Clear Clear  
Wind Chill: 84°   Ceiling: Unl
Heat Index: 84°   Visibility: 6mi
Dew Point: 61°   Wind: 16mph
Humidity: 45%   Direction: 110°ESE
Pressure: 29.94"   Gusts: NA
Location:  25.54°S, 152.7°E
Report Text: YBUD 220300Z AUTO 11014KT 9999 // NCD 29/16 Q1014
Loading
Personal Weather Stations






























Interactive Weather Map New forecast layout! Learn more

10-Day Weather Forecast

Advertisements
Track Severe Weather on mobile